Bremer Johanna — DEBK — position and weather

sailwx.info

Track history (hours):
 
Tides and Currents Weather Stations Pressure Air Temp Water Temp Dewpoint Dewpoint Depression Visibility Wind Speed Wind Dir Waves Ship Positions

Bremer Johanna

Last reported at 2018-Jul-13 00:27 UTC. Time now 2018-Jul-15 20:37 UTC.
Position N 44°05' E 014°31'.

Length 90 m.

MMSI: 218815000.

Date/timePositionNaut miles runAvg speedWind from/ knotsBaromVisibWave heightAir tempDewpointWater temp
2018-Jul-13 00:27N 44°05' E 014°31'512.1
2018-Jul-13 00:00N 44°09' E 014°27'611.9
2018-Jul-12 23:30N 44°14' E 014°22'612.3
2018-Jul-12 23:00N 44°20' E 014°17'611.8
2018-Jul-12 22:30N 44°25' E 014°14'611.9
2018-Jul-12 22:00N 44°30' E 014°10'612.0
2018-Jul-12 21:28N 44°36' E 014°06'511.4
2018-Jul-12 21:00N 44°41' E 014°05'611.4
2018-Jul-12 20:30N 44°47' E 014°06'  
2018-Jul-07 02:44N 44°52' E 014°08'2 8.6
2018-Jul-07 02:30N 44°50' E 014°06'4 8.9
2018-Jul-07 02:00N 44°47' E 014°03'4 9.0
2018-Jul-07 01:30N 44°43' E 014°00'4 8.9
2018-Jul-07 01:01N 44°41' E 013°55'5 9.2
2018-Jul-07 00:29N 44°39' E 013°48'4 9.1
2018-Jul-07 00:00N 44°38' E 013°42'4 8.9
2018-Jul-06 23:30N 44°37' E 013°36'4 8.8
2018-Jul-06 23:00N 44°40' E 013°32'5 9.3
2018-Jul-06 22:31N 44°43' E 013°27'5 9.2
2018-Jul-06 22:01N 44°47' E 013°23'5 9.3
2018-Jul-06 21:30N 44°50' E 013°19'5 9.1
2018-Jul-06 21:00N 44°53' E 013°13'4 8.8
2018-Jul-06 20:31N 44°53' E 013°07'4 8.7
2018-Jul-06 20:00N 44°52' E 013°02'5 9.2
2018-Jul-06 19:31N 44°49' E 012°56'5 9.3
2018-Jul-06 19:01N 44°46' E 012°51'32 1.5
2018-Jul-05 21:49N 44°27' E 012°15'0 0.0
2018-Jul-05 21:30N 44°27' E 012°15'0 0.0
2018-Jul-05 19:26N 44°27' E 012°15'0 0.0
2018-Jul-05 17:48N 44°27' E 012°15'0 0.0
2018-Jul-05 16:33N 44°27' E 012°15'0 0.0
2018-Jul-05 16:30N 44°27' E 012°15'0 0.0
2018-Jul-05 16:00N 44°27' E 012°15'0 0.0
2018-Jul-05 14:03N 44°27' E 012°15'0 0.0
2018-Jul-05 12:09N 44°27' E 012°15'8 0.5
2018-Jul-04 20:51N 44°30' E 012°25'710.9
2018-Jul-04 20:10N 44°30' E 012°35'211.2
2018-Jul-04 20:00N 44°29' E 012°38'611.3
2018-Jul-04 19:28N 44°26' E 012°45'2111.6
2018-Jul-04 17:39N 44°18' E 013°13'311.8
2018-Jul-04 17:22N 44°16' E 013°16'511.8
2018-Jul-04 16:59N 44°13' E 013°21'611.5
2018-Jul-04 16:30N 44°10' E 013°28'611.3
2018-Jul-04 15:57N 44°06' E 013°35'2311.1
2018-Jul-04 13:52N 43°52' E 013°60'411.0
2018-Jul-04 13:31N 43°49' E 014°04'  
Track history (hours):
 
Tides and Currents Weather Stations Pressure Air Temp Water Temp Dewpoint Dewpoint Depression Visibility Wind Speed Wind Dir Waves Ship Positions

Bremer Johanna

Last reported at 2018-Jul-13 00:27 UTC. Time now 2018-Jul-15 20:37 UTC.
Position N 44°05' E 014°31'.

Length 90 m.

MMSI: 218815000.

Date/timePositionNaut miles runAvg speedWind from/ knotsBaromVisibWave heightAir tempDewpointWater temp
2018-Jul-13 00:27N 44°05' E 014°31'512.1
2018-Jul-13 00:00N 44°09' E 014°27'611.9
2018-Jul-12 23:30N 44°14' E 014°22'612.3
2018-Jul-12 23:00N 44°20' E 014°17'611.8
2018-Jul-12 22:30N 44°25' E 014°14'611.9
2018-Jul-12 22:00N 44°30' E 014°10'612.0
2018-Jul-12 21:28N 44°36' E 014°06'511.4
2018-Jul-12 21:00N 44°41' E 014°05'611.4
2018-Jul-12 20:30N 44°47' E 014°06'  
2018-Jul-07 02:44N 44°52' E 014°08'2 8.6
2018-Jul-07 02:30N 44°50' E 014°06'4 8.9
2018-Jul-07 02:00N 44°47' E 014°03'4 9.0
2018-Jul-07 01:30N 44°43' E 014°00'4 8.9
2018-Jul-07 01:01N 44°41' E 013°55'5 9.2
2018-Jul-07 00:29N 44°39' E 013°48'4 9.1
2018-Jul-07 00:00N 44°38' E 013°42'4 8.9
2018-Jul-06 23:30N 44°37' E 013°36'4 8.8
2018-Jul-06 23:00N 44°40' E 013°32'5 9.3
2018-Jul-06 22:31N 44°43' E 013°27'5 9.2
2018-Jul-06 22:01N 44°47' E 013°23'5 9.3
2018-Jul-06 21:30N 44°50' E 013°19'5 9.1
2018-Jul-06 21:00N 44°53' E 013°13'4 8.8
2018-Jul-06 20:31N 44°53' E 013°07'4 8.7
2018-Jul-06 20:00N 44°52' E 013°02'5 9.2
2018-Jul-06 19:31N 44°49' E 012°56'5 9.3
2018-Jul-06 19:01N 44°46' E 012°51'32 1.5
2018-Jul-05 21:49N 44°27' E 012°15'0 0.0
2018-Jul-05 21:30N 44°27' E 012°15'0 0.0
2018-Jul-05 19:26N 44°27' E 012°15'0 0.0
2018-Jul-05 17:48N 44°27' E 012°15'0 0.0
2018-Jul-05 16:33N 44°27' E 012°15'0 0.0
2018-Jul-05 16:30N 44°27' E 012°15'0 0.0
2018-Jul-05 16:00N 44°27' E 012°15'0 0.0
2018-Jul-05 14:03N 44°27' E 012°15'0 0.0
2018-Jul-05 12:09N 44°27' E 012°15'8 0.5
2018-Jul-04 20:51N 44°30' E 012°25'710.9
2018-Jul-04 20:10N 44°30' E 012°35'211.2
2018-Jul-04 20:00N 44°29' E 012°38'611.3
2018-Jul-04 19:28N 44°26' E 012°45'2111.6
2018-Jul-04 17:39N 44°18' E 013°13'311.8
2018-Jul-04 17:22N 44°16' E 013°16'511.8
2018-Jul-04 16:59N 44°13' E 013°21'611.5
2018-Jul-04 16:30N 44°10' E 013°28'611.3
2018-Jul-04 15:57N 44°06' E 013°35'2311.1
2018-Jul-04 13:52N 43°52' E 013°60'411.0
2018-Jul-04 13:31N 43°49' E 014°04'  

Dump ship's entire track history